Time;durP1;ratioP1;P1;durP2;ratioP2;P2;SDS_P1;SDS_P2;PMS_P1;PMS_P2;Temp;Humidity;BMP_temperature;BMP_pressure;BME280_temperature;BME280_humidity;BME280_pressure;Samples;Min_cycle;Max_cycle;Signal;HPM_P1;HPM_P2
2023/10/19 00:02:22;;;;;;;3.90;2.42;;;;;;;19.57;53.67;99091.16;4955094;29;20499;-58
2023/10/19 00:04:49;;;;;;;8.23;3.28;;;;;;;19.57;53.80;99074.84;4938190;29;20027;-57
2023/10/19 00:07:15;;;;;;;4.18;2.45;;;;;;;19.61;53.79;99073.31;4955661;29;20031;-58
2023/10/19 00:09:46;;;;;;;4.55;2.80;;;;;;;19.63;54.03;99074.75;4938700;29;20071;-58
2023/10/19 00:12:11;;;;;;;6.15;2.92;;;;;;;19.66;53.80;99068.00;4922758;29;20578;-57
2023/10/19 00:14:36;;;;;;;3.88;2.45;;;;;;;19.70;54.00;99061.06;4955095;29;20036;-57
2023/10/19 00:17:10;;;;;;;3.85;1.77;;;;;;;19.77;54.19;99072.66;4955110;29;20031;-58
2023/10/19 00:19:40;;;;;;;2.00;1.25;;;;;;;19.82;54.80;99059.19;4928718;29;20384;-58
2023/10/19 00:22:08;;;;;;;5.82;2.13;;;;;;;19.93;55.13;99055.72;4951703;28;20046;-58
2023/10/19 00:24:39;;;;;;;3.25;1.25;;;;;;;20.04;55.18;99071.22;4954914;29;20063;-57
2023/10/19 00:27:15;;;;;;;;;;;;;;;20.19;54.77;99074.31;4954571;29;20062;-58
2023/10/19 00:29:40;;;;;;;;;;;;;;;20.32;55.26;99076.81;4955844;29;19914;-58
2023/10/19 00:32:08;;;;;;;1.30;1.00;;;;;;;20.43;54.64;99068.94;4938098;28;19915;-58
2023/10/19 00:34:34;;;;;;;2.15;1.30;;;;;;;20.54;54.73;99066.22;4955317;29;20035;-58
2023/10/19 00:37:07;;;;;;;1.55;1.17;;;;;;;20.64;55.41;99065.59;4954646;29;20042;-58
2023/10/19 00:39:50;;;;;;;1.40;0.85;;;;;;;20.69;54.98;99068.44;4938756;29;20082;-58
2023/10/19 00:42:20;;;;;;;;;;;;;;;20.79;55.21;99069.53;4939833;29;20035;-58
2023/10/19 00:44:49;;;;;;;0.40;0.40;;;;;;;20.85;54.64;99071.25;4937822;29;20387;-57
2023/10/19 00:47:18;;;;;;;0.95;0.60;;;;;;;20.91;55.04;99074.94;4937873;29;20086;-58
2023/10/19 00:49:46;;;;;;;0.88;0.50;;;;;;;20.94;55.27;99077.16;4954440;29;20039;-58
2023/10/19 00:52:19;;;;;;;2.63;0.35;;;;;;;20.99;55.46;99080.03;4937325;29;20035;-58
2023/10/19 00:57:19;;;;;;;1.40;0.70;;;;;;;21.08;55.26;99070.44;4937418;29;20051;-58
2023/10/19 00:59:49;;;;;;;2.28;0.40;;;;;;;21.10;54.95;99065.59;4954321;29;20036;-58
2023/10/19 01:05:05;;;;;;;0.40;0.20;;;;;;;21.20;55.05;99054.06;4938679;29;20038;-57
2023/10/19 01:07:31;;;;;;;1.67;0.50;;;;;;;21.22;55.05;99058.19;4946490;29;20114;-58
2023/10/19 01:10:03;;;;;;;4.55;0.60;;;;;;;21.25;55.18;99052.28;4953280;29;20506;-58
2023/10/19 01:15:29;;;;;;;1.00;0.40;;;;;;;21.30;55.29;99060.53;4957977;29;20407;-58
2023/10/19 01:17:59;;;;;;;1.30;0.63;;;;;;;21.31;54.61;99064.94;4957526;28;20039;-58
2023/10/19 01:28:25;;;;;;;0.47;0.32;;;;;;;21.35;55.01;99057.13;4957991;29;20510;-58
2023/10/19 01:30:53;;;;;;;1.60;0.45;;;;;;;21.38;54.43;99062.88;4941193;29;20059;-58
2023/10/19 01:33:19;;;;;;;4.38;0.30;;;;;;;21.41;54.50;99061.59;4957763;28;20035;-58
2023/10/19 01:38:31;;;;;;;0.80;0.63;;;;;;;21.39;55.27;99053.66;4961193;28;20046;-58
2023/10/19 01:40:59;;;;;;;0.88;0.20;;;;;;;21.41;55.38;99056.97;4958417;28;20181;-58
2023/10/19 01:43:25;;;;;;;0.80;0.25;;;;;;;21.45;55.51;99057.31;4959839;28;20046;-58
2023/10/19 01:45:56;;;;;;;0.80;0.30;;;;;;;21.45;55.04;99065.47;4976729;28;20035;-58
2023/10/19 01:48:35;;;;;;;0.95;0.50;;;;;;;21.47;54.89;99061.44;4959861;28;20035;-58
2023/10/19 01:51:06;;;;;;;1.95;0.30;;;;;;;21.48;55.23;99065.81;4959970;28;20042;-58
2023/10/19 01:53:36;;;;;;;1.67;0.25;;;;;;;21.51;54.92;99055.50;4976632;28;20034;-57
2023/10/19 01:56:05;;;;;;;0.60;0.30;;;;;;;21.53;54.97;99064.25;4976421;28;20502;-57
2023/10/19 01:58:31;;;;;;;1.77;0.30;;;;;;;21.54;55.19;99065.91;4959051;28;20047;-58
2023/10/19 02:01:00;;;;;;;1.48;0.63;;;;;;;21.54;55.24;99060.47;4976429;28;20030;-58
2023/10/19 02:03:28;;;;;;;1.92;0.10;;;;;;;21.57;54.30;99060.00;4943514;28;20418;-58
2023/10/19 02:06:00;;;;;;;0.30;0.20;;;;;;;21.59;55.07;99063.28;4959369;28;20038;-57
2023/10/19 02:08:26;;;;;;;0.30;0.10;;;;;;;21.60;54.97;99060.34;4958581;28;20042;-57
2023/10/19 02:10:52;;;;;;;3.03;0.40;;;;;;;21.62;54.29;99062.81;4942843;28;20038;-57
2023/10/19 02:13:21;;;;;;;1.80;0.47;;;;;;;21.63;54.46;99059.03;4976413;28;20024;-58
2023/10/19 02:15:46;;;;;;;0.22;0.20;;;;;;;21.63;53.85;99064.47;4941600;28;20019;-57
2023/10/19 02:18:12;;;;;;;2.45;0.30;;;;;;;21.65;54.91;99059.59;4976104;28;20524;-57
2023/10/19 02:20:41;;;;;;;4.22;1.08;;;;;;;21.64;54.51;99055.19;4958314;28;20494;-57
2023/10/19 02:23:07;;;;;;;2.50;0.40;;;;;;;21.66;54.31;99053.09;4975423;28;20047;-58
2023/10/19 02:25:36;;;;;;;2.03;0.30;;;;;;;21.67;54.31;99054.72;4958821;28;20154;-58
2023/10/19 02:28:03;;;;;;;2.33;2.08;;;;;;;21.67;54.63;99043.81;4943113;28;20030;-57
2023/10/19 02:30:30;;;;;;;2.28;0.38;;;;;;;21.69;53.90;99055.31;4958634;28;20039;-57
2023/10/19 02:32:56;;;;;;;0.70;0.40;;;;;;;21.68;54.58;99042.75;4958991;28;20090;-58
2023/10/19 02:35:21;;;;;;;1.65;0.30;;;;;;;21.68;54.65;99042.75;4958427;28;20075;-58
2023/10/19 02:37:46;;;;;;;1.95;0.32;;;;;;;21.71;53.53;99054.00;4958329;28;20043;-57
2023/10/19 02:40:23;;;;;;;2.03;0.30;;;;;;;21.72;53.76;99046.66;4958431;28;20031;-61
2023/10/19 02:42:50;;;;;;;1.42;0.50;;;;;;;21.72;54.10;99036.56;4959094;28;20066;-57
2023/10/19 02:45:16;;;;;;;1.13;0.50;;;;;;;21.75;54.14;99040.69;4960236;28;20062;-59
2023/10/19 02:47:43;;;;;;;0.43;0.28;;;;;;;21.74;53.66;99039.06;4961114;28;20042;-66
2023/10/19 02:50:13;;;;;;;2.03;0.38;;;;;;;21.76;53.82;99047.81;4944002;28;20037;-57
2023/10/19 02:52:43;;;;;;;1.70;0.30;;;;;;;21.77;54.04;99035.84;4942748;28;20043;-58
2023/10/19 02:55:09;;;;;;;1.95;0.63;;;;;;;21.77;54.38;99024.94;4959158;28;20042;-58
2023/10/19 02:57:37;;;;;;;3.00;0.25;;;;;;;21.79;53.40;99030.97;4958061;28;20039;-58
2023/10/19 03:00:13;;;;;;;0.40;0.20;;;;;;;21.79;54.28;99026.34;4957910;28;20516;-57
2023/10/19 03:02:39;;;;;;;0.43;0.30;;;;;;;21.79;53.36;99023.63;4959207;28;20129;-57
2023/10/19 03:05:14;;;;;;;1.35;0.85;;;;;;;21.80;54.11;99027.19;4958016;28;20042;-57
2023/10/19 03:07:43;;;;;;;1.05;0.30;;;;;;;21.81;53.76;99029.63;4959294;28;20518;-58
2023/10/19 03:10:22;;;;;;;2.78;0.40;;;;;;;21.80;53.66;99021.72;4975274;28;20062;-58
2023/10/19 03:12:49;;;;;;;3.33;0.55;;;;;;;21.82;53.74;99030.47;4960052;28;20031;-57
2023/10/19 03:15:15;;;;;;;2.47;0.40;;;;;;;21.83;53.02;99021.22;4958203;28;20046;-57
2023/10/19 03:17:40;;;;;;;4.03;0.43;;;;;;;21.81;53.42;99018.72;4974954;28;20122;-57
2023/10/19 03:20:06;;;;;;;2.80;0.35;;;;;;;21.81;53.58;99023.34;4957604;28;20045;-57
2023/10/19 03:22:33;;;;;;;2.67;0.40;;;;;;;21.83;53.05;99023.97;4974976;28;20031;-57
2023/10/19 03:27:44;;;;;;;1.90;0.28;;;;;;;21.83;52.74;99015.78;4960375;28;20074;-57
2023/10/19 03:30:14;;;;;;;4.90;0.40;;;;;;;21.81;52.97;99001.56;4957460;28;20109;-57
2023/10/19 03:32:43;;;;;;;3.08;0.40;;;;;;;21.84;53.29;99014.69;4974976;28;20394;-57
2023/10/19 03:35:13;;;;;;;5.22;0.40;;;;;;;21.83;53.74;99010.31;4973935;28;20031;-58
2023/10/19 03:37:38;;;;;;;2.17;0.93;;;;;;;21.84;53.65;99006.50;4974732;28;20039;-57
2023/10/19 03:40:10;;;;;;;2.00;1.15;;;;;;;21.85;53.90;99008.19;4974710;28;20464;-57
2023/10/19 03:42:40;;;;;;;1.75;0.30;;;;;;;21.86;53.85;98993.47;4974492;28;20031;-57
2023/10/19 03:45:13;;;;;;;1.10;0.50;;;;;;;21.85;52.80;98995.38;4974304;28;20043;-58
2023/10/19 03:47:39;;;;;;;7.70;0.70;;;;;;;21.85;53.27;98991.81;4974511;28;20027;-58
2023/10/19 03:50:14;;;;;;;3.58;0.65;;;;;;;21.86;53.50;98990.75;4957489;28;20371;-57
2023/10/19 03:52:39;;;;;;;4.40;0.70;;;;;;;21.84;53.02;98987.44;4974718;28;20046;-57
2023/10/19 03:55:22;;;;;;;1.45;0.22;;;;;;;21.85;52.72;98991.81;4941008;28;20079;-58
2023/10/19 03:57:54;;;;;;;0.82;0.40;;;;;;;21.81;53.23;98996.09;4964503;28;20047;-57
2023/10/19 04:00:25;;;;;;;3.50;0.52;;;;;;;21.80;53.16;98991.75;4973600;28;20031;-58
2023/10/19 04:02:55;;;;;;;1.88;0.73;;;;;;;21.80;52.54;98994.47;4974158;28;20073;-57
2023/10/19 04:05:22;;;;;;;1.83;0.20;;;;;;;21.76;52.85;98988.66;4957771;28;20368;-57
2023/10/19 04:07:57;;;;;;;4.28;0.25;;;;;;;21.75;52.93;98989.72;4974311;28;20035;-57
2023/10/19 04:10:29;;;;;;;3.47;0.50;;;;;;;21.73;52.71;98991.88;4958114;28;20487;-57
2023/10/19 04:12:55;;;;;;;3.33;0.47;;;;;;;21.68;53.48;98997.25;4957730;28;20526;-58
2023/10/19 04:15:22;;;;;;;0.90;0.35;;;;;;;21.70;52.76;98991.53;4956747;28;20042;-58
2023/10/19 04:17:50;;;;;;;1.27;0.22;;;;;;;21.68;53.18;98996.41;4940719;28;20121;-57
2023/10/19 04:22:46;;;;;;;1.55;0.32;;;;;;;21.67;53.41;99002.94;4939548;28;20038;-58
2023/10/19 04:25:13;;;;;;;1.83;0.50;;;;;;;21.64;53.47;98993.34;4956561;28;20035;-57
2023/10/19 04:27:42;;;;;;;1.27;0.25;;;;;;;21.65;53.21;98991.47;4956603;28;20521;-58
2023/10/19 04:30:15;;;;;;;1.27;0.38;;;;;;;21.65;52.80;99003.19;4940623;28;20041;-58
2023/10/19 04:32:45;;;;;;;4.43;0.70;;;;;;;21.62;53.70;98984.59;4973916;28;20027;-57
2023/10/19 04:35:13;;;;;;;1.77;0.40;;;;;;;21.63;53.63;98996.34;4973846;28;20033;-57
2023/10/19 04:37:42;;;;;;;8.48;0.82;;;;;;;21.62;53.43;98997.41;4956712;28;20093;-58
2023/10/19 04:40:09;;;;;;;3.67;0.40;;;;;;;21.63;53.16;98999.06;4973683;28;20089;-57
2023/10/19 04:42:34;;;;;;;2.33;0.73;;;;;;;21.61;53.36;99002.00;4973685;28;20394;-58
2023/10/19 04:45:05;;;;;;;2.30;0.60;;;;;;;21.65;52.63;99007.81;4973608;28;20374;-57
2023/10/19 04:47:33;;;;;;;3.40;0.60;;;;;;;21.65;53.67;99002.34;4973917;28;20027;-57
2023/10/19 04:49:58;;;;;;;1.10;0.50;;;;;;;21.63;52.66;99005.34;4956821;28;20038;-58
2023/10/19 04:52:23;;;;;;;6.53;0.80;;;;;;;21.64;53.17;99004.25;4973791;28;20521;-57
2023/10/19 04:54:49;;;;;;;3.10;0.40;;;;;;;21.63;52.79;99005.34;4956506;28;20383;-58
2023/10/19 04:57:14;;;;;;;3.35;0.75;;;;;;;21.64;52.88;99006.16;4956324;28;20039;-58
2023/10/19 04:59:39;;;;;;;4.88;0.40;;;;;;;21.64;52.77;99000.69;4973593;28;20038;-58
2023/10/19 05:02:05;;;;;;;3.55;0.50;;;;;;;21.62;52.88;98992.78;4973381;28;20038;-57
2023/10/19 05:04:31;;;;;;;2.65;0.52;;;;;;;21.65;53.37;99007.81;4973446;28;20039;-57
2023/10/19 05:06:56;;;;;;;3.70;0.85;;;;;;;21.65;52.87;98999.63;4973174;28;20038;-58
2023/10/19 05:09:21;;;;;;;6.68;0.45;;;;;;;21.66;53.19;99001.31;4956592;28;20038;-57
2023/10/19 05:11:48;;;;;;;3.05;0.52;;;;;;;21.66;52.73;99004.03;4962488;28;20616;-58
2023/10/19 05:14:14;;;;;;;5.00;1.35;;;;;;;21.67;53.67;99000.22;4973410;28;20118;-58
2023/10/19 05:16:41;;;;;;;0.55;0.40;;;;;;;21.69;52.63;99003.53;4956311;28;20058;-58
2023/10/19 05:19:07;;;;;;;1.25;0.45;;;;;;;21.68;52.84;99008.16;4973507;28;20037;-58
2023/10/19 05:21:33;;;;;;;4.63;0.50;;;;;;;21.68;52.71;99012.78;4973474;28;20031;-58
2023/10/19 05:24:00;;;;;;;4.88;1.23;;;;;;;21.67;52.87;99006.50;4963690;28;20130;-58
2023/10/19 05:26:26;;;;;;;3.92;0.68;;;;;;;21.68;53.01;99007.31;4936758;29;20562;-59
2023/10/19 05:28:51;;;;;;;2.33;0.80;;;;;;;21.67;53.42;99002.94;4947600;28;20038;-59
2023/10/19 05:31:16;;;;;;;4.57;0.52;;;;;;;21.67;53.57;99005.66;4973324;28;20031;-58
2023/10/19 05:33:42;;;;;;;2.63;0.70;;;;;;;21.68;53.02;99007.31;4939991;28;20030;-58
2023/10/19 05:36:07;;;;;;;5.38;0.55;;;;;;;21.68;52.96;99008.16;4973203;28;20039;-58
2023/10/19 05:38:32;;;;;;;1.55;0.38;;;;;;;21.72;53.42;99003.06;4973200;28;20498;-58
2023/10/19 05:40:59;;;;;;;2.53;0.57;;;;;;;21.72;53.16;99001.13;4971815;28;20039;-58
2023/10/19 05:43:25;;;;;;;1.63;0.65;;;;;;;21.73;53.37;99015.59;4973089;28;20049;-57
2023/10/19 05:45:51;;;;;;;1.80;0.60;;;;;;;21.74;53.29;99009.06;4955678;28;20030;-58
2023/10/19 05:48:16;;;;;;;3.88;1.40;;;;;;;21.75;53.16;99017.00;4973115;28;20031;-57
2023/10/19 05:50:42;;;;;;;2.15;0.85;;;;;;;21.77;53.14;99022.22;4955877;28;20037;-58
2023/10/19 05:53:07;;;;;;;2.83;0.77;;;;;;;21.78;52.75;99018.41;4939912;28;20050;-58
2023/10/19 05:55:35;;;;;;;4.03;1.10;;;;;;;21.78;53.20;99015.66;4972709;28;20073;-59
2023/10/19 05:58:01;;;;;;;4.25;1.25;;;;;;;21.80;52.71;99021.72;4955587;28;20498;-58
2023/10/19 06:00:26;;;;;;;3.67;0.90;;;;;;;21.83;53.40;99023.97;4958996;28;20078;-58
2023/10/19 06:02:52;;;;;;;4.05;1.20;;;;;;;21.82;53.67;99019.56;4976497;28;20106;-57
2023/10/19 06:05:18;;;;;;;3.03;0.70;;;;;;;21.85;53.72;99029.97;4943036;28;20026;-57
2023/10/19 06:07:48;;;;;;;2.65;0.73;;;;;;;21.86;53.09;99026.19;4942942;28;20026;-58
2023/10/19 06:10:18;;;;;;;1.88;0.35;;;;;;;21.85;53.21;99021.81;4959009;28;20057;-58
2023/10/19 06:12:45;;;;;;;7.35;0.80;;;;;;;21.89;53.06;99031.16;4956519;28;20030;-58
2023/10/19 06:15:11;;;;;;;4.13;0.65;;;;;;;21.91;52.89;99029.88;4976219;28;20027;-57
2023/10/19 06:17:38;;;;;;;4.47;0.80;;;;;;;21.91;53.60;99026.31;4959033;28;20430;-58
2023/10/19 06:20:07;;;;;;;2.67;0.70;;;;;;;21.93;53.86;99030.44;4958794;28;20038;-57
2023/10/19 06:22:32;;;;;;;5.70;0.88;;;;;;;21.95;53.95;99036.47;4976062;28;20041;-57
2023/10/19 06:24:58;;;;;;;2.92;0.57;;;;;;;21.94;53.54;99037.53;4975827;28;20039;-58
2023/10/19 06:27:23;;;;;;;4.43;1.30;;;;;;;21.96;53.68;99042.75;4958822;28;20431;-58
2023/10/19 06:29:49;;;;;;;6.45;0.90;;;;;;;21.96;53.20;99040.84;4976052;28;20031;-58
2023/10/19 06:32:15;;;;;;;3.05;1.40;;;;;;;21.98;53.06;99038.69;4976091;28;20498;-58
2023/10/19 06:34:40;;;;;;;2.75;0.80;;;;;;;21.99;52.93;99042.25;4976023;28;20062;-58
2023/10/19 06:37:08;;;;;;;5.57;0.82;;;;;;;22.02;53.30;99041.78;4975920;28;20089;-57
2023/10/19 06:39:34;;;;;;;3.58;0.80;;;;;;;22.03;53.37;99044.25;4959056;28;20038;-57
2023/10/19 06:41:59;;;;;;;1.60;0.50;;;;;;;22.03;53.03;99049.69;4975785;28;20030;-57
2023/10/19 06:44:24;;;;;;;3.50;0.65;;;;;;;22.04;52.88;99048.63;4975445;28;20039;-58
2023/10/19 06:46:49;;;;;;;0.82;0.55;;;;;;;22.06;53.00;99053.81;4958221;28;20035;-58
2023/10/19 06:49:15;;;;;;;4.63;0.80;;;;;;;22.07;53.79;99052.75;4942284;28;20038;-58
2023/10/19 06:51:40;;;;;;;4.63;0.90;;;;;;;22.08;53.02;99048.97;4958309;28;20114;-58
2023/10/19 06:54:08;;;;;;;4.13;1.10;;;;;;;22.11;52.76;99056.63;4958245;28;20035;-58
2023/10/19 06:56:36;;;;;;;3.17;0.80;;;;;;;22.12;53.05;99052.84;4975364;28;20050;-57
2023/10/19 06:59:04;;;;;;;6.45;0.75;;;;;;;22.13;53.19;99056.41;4975391;28;20031;-59
2023/10/19 07:01:32;;;;;;;6.18;0.68;;;;;;;22.17;52.83;99050.19;4975599;28;20039;-57
2023/10/19 07:03:58;;;;;;;5.15;1.30;;;;;;;22.18;53.32;99049.13;4975277;28;20494;-57
2023/10/19 07:06:23;;;;;;;3.33;0.80;;;;;;;22.20;53.39;99048.88;4958242;28;20037;-58
2023/10/19 07:08:49;;;;;;;2.72;0.90;;;;;;;22.26;53.07;99053.34;4975492;28;20413;-57
2023/10/19 07:11:14;;;;;;;3.55;0.60;;;;;;;22.30;53.52;99047.16;4956963;28;20039;-57
2023/10/19 07:13:39;;;;;;;5.68;0.90;;;;;;;22.35;53.45;99052.69;4975366;28;20525;-58
2023/10/19 07:16:05;;;;;;;5.90;0.88;;;;;;;22.38;53.63;99049.47;4974982;28;20486;-58
2023/10/19 07:18:31;;;;;;;2.15;0.73;;;;;;;22.42;53.34;99049.75;4974903;28;20077;-58
2023/10/19 07:21:03;;;;;;;5.10;1.35;;;;;;;22.44;53.31;99045.75;4975247;28;20035;-57
2023/10/19 07:23:28;;;;;;;4.97;0.80;;;;;;;22.50;53.40;99042.00;4957344;28;20053;-57
2023/10/19 07:25:55;;;;;;;2.28;1.00;;;;;;;22.57;52.59;99039.94;4957778;28;20026;-59
2023/10/19 07:28:27;;;;;;;4.80;0.82;;;;;;;22.57;53.68;99044.56;4941831;28;20457;-57
2023/10/19 07:30:52;;;;;;;7.20;0.55;;;;;;;22.59;52.91;99048.69;4958402;28;20038;-59
2023/10/19 07:33:19;;;;;;;6.53;0.60;;;;;;;22.60;53.37;99053.06;4974839;28;20022;-59
2023/10/19 07:35:46;;;;;;;5.95;0.70;;;;;;;22.67;52.85;99046.66;4957838;28;20039;-59
2023/10/19 07:38:16;;;;;;;9.73;1.08;;;;;;;22.72;52.18;99052.19;4957533;28;20034;-57
2023/10/19 07:40:43;;;;;;;5.32;0.80;;;;;;;22.74;52.63;99048.13;4957581;28;20035;-58
2023/10/19 07:43:09;;;;;;;4.35;1.10;;;;;;;22.77;52.36;99038.59;4941519;28;20038;-58
2023/10/19 07:45:36;;;;;;;5.45;1.77;;;;;;;22.80;53.24;99038.09;4959747;28;20163;-60
2023/10/19 07:48:06;;;;;;;7.00;1.30;;;;;;;22.81;52.30;99037.03;4959208;28;20058;-58
2023/10/19 07:50:35;;;;;;;5.85;0.90;;;;;;;22.84;52.67;99028.31;4976957;28;20093;-58
2023/10/19 07:53:00;;;;;;;3.55;1.02;;;;;;;22.94;53.12;99031.19;4957671;28;20126;-58
2023/10/19 07:55:26;;;;;;;5.85;1.13;;;;;;;23.02;52.48;99031.56;4974660;28;20537;-58
2023/10/19 07:57:52;;;;;;;4.78;1.38;;;;;;;23.15;52.70;99019.44;4974251;28;20043;-58
2023/10/19 08:00:18;;;;;;;12.65;1.42;;;;;;;23.35;52.12;99022.41;4957011;28;20027;-58
2023/10/19 08:02:47;;;;;;;4.57;1.20;;;;;;;23.80;51.81;99015.78;4956842;28;20437;-59
2023/10/19 08:05:13;;;;;;;8.13;1.02;;;;;;;24.20;51.26;99013.44;4957518;28;20041;-58
2023/10/19 08:07:42;;;;;;;9.25;1.25;;;;;;;24.54;51.02;99017.50;4974194;28;20031;-58
2023/10/19 08:10:11;;;;;;;8.55;1.60;;;;;;;24.67;50.77;99006.09;4974291;28;20035;-58
2023/10/19 08:12:38;;;;;;;8.30;1.17;;;;;;;24.86;50.86;99014.72;4956938;28;20118;-58
2023/10/19 08:15:04;;;;;;;5.35;1.00;;;;;;;24.97;50.25;98999.97;4940851;28;20101;-58
2023/10/19 08:17:30;;;;;;;3.83;0.70;;;;;;;25.06;50.07;99003.03;4974014;28;20031;-58
2023/10/19 08:19:56;;;;;;;1.98;0.75;;;;;;;25.30;49.41;99005.03;4973976;28;20386;-58
2023/10/19 08:22:23;;;;;;;3.90;1.30;;;;;;;25.61;49.76;98992.25;4973495;28;20073;-58
2023/10/19 08:24:49;;;;;;;5.07;0.95;;;;;;;25.86;49.13;98992.28;4973880;28;20436;-58
2023/10/19 08:27:17;;;;;;;6.95;1.23;;;;;;;26.07;48.75;98984.91;4973795;28;20056;-59
2023/10/19 08:29:42;;;;;;;4.72;1.13;;;;;;;26.31;48.66;98988.75;4956748;28;20034;-58
2023/10/19 08:32:08;;;;;;;11.48;1.27;;;;;;;26.57;48.88;98993.09;4956207;28;20034;-58
2023/10/19 08:34:36;;;;;;;10.07;1.30;;;;;;;26.81;48.18;98987.84;4956469;28;20406;-59
2023/10/19 08:37:04;;;;;;;8.45;2.20;;;;;;;27.05;48.09;98993.53;4956277;28;20035;-58
2023/10/19 08:39:35;;;;;;;9.80;1.60;;;;;;;27.29;47.54;98993.69;4973772;28;20085;-58
2023/10/19 08:42:04;;;;;;;6.70;1.77;;;;;;;27.57;46.91;98991.09;4973652;28;20027;-58
2023/10/19 08:44:31;;;;;;;5.85;1.40;;;;;;;27.71;47.03;98997.59;4956264;28;20034;-59
2023/10/19 08:46:57;;;;;;;5.85;2.00;;;;;;;27.59;47.28;98988.88;4956018;28;20031;-58
2023/10/19 08:49:23;;;;;;;8.65;1.38;;;;;;;27.53;47.02;98992.75;4956360;28;20030;-58
2023/10/19 08:51:49;;;;;;;11.10;1.42;;;;;;;27.52;46.58;98987.56;4956410;28;20077;-58
2023/10/19 08:54:14;;;;;;;7.35;1.65;;;;;;;27.68;46.27;98983.59;4956211;28;20564;-59
2023/10/19 08:56:41;;;;;;;6.78;2.35;;;;;;;28.10;45.72;98983.84;4973271;28;20568;-59
2023/10/19 08:59:11;;;;;;;4.32;1.15;;;;;;;28.41;45.57;98969.78;4973496;28;20118;-59
2023/10/19 09:01:37;;;;;;;8.35;1.10;;;;;;;28.49;44.58;98969.97;4956178;28;20122;-58
2023/10/19 09:04:02;;;;;;;10.35;2.67;;;;;;;28.23;46.03;98966.66;4955957;28;20031;-59
2023/10/19 09:06:29;;;;;;;4.95;1.15;;;;;;;28.00;45.04;98967.34;4956063;28;20379;-58
2023/10/19 09:08:55;;;;;;;10.48;1.33;;;;;;;27.84;45.17;98967.78;4972963;28;20142;-59
2023/10/19 09:11:20;;;;;;;6.57;1.48;;;;;;;27.84;45.69;98968.59;4973497;28;20093;-59
2023/10/19 09:13:50;;;;;;;9.40;2.10;;;;;;;28.24;44.63;98973.81;4955789;28;20058;-59
2023/10/19 09:16:21;;;;;;;4.35;0.75;;;;;;;27.94;45.22;98963.03;4955702;28;20109;-58
2023/10/19 09:18:47;;;;;;;8.38;2.00;;;;;;;27.63;44.96;98964.38;4973512;28;20054;-58
2023/10/19 09:21:28;;;;;;;7.47;1.42;;;;;;;27.45;45.34;98962.28;4973418;28;20054;-58
2023/10/19 09:23:55;;;;;;;7.13;1.45;;;;;;;27.33;44.70;98968.06;4972921;28;20038;-59
2023/10/19 09:26:21;;;;;;;7.07;1.02;;;;;;;27.21;44.89;98961.28;4956165;28;20054;-58
2023/10/19 09:28:48;;;;;;;4.35;1.08;;;;;;;27.14;45.96;98947.84;4973182;28;20038;-58
2023/10/19 09:31:14;;;;;;;4.38;0.98;;;;;;;27.10;45.57;98955.03;4973545;28;20178;-58
2023/10/19 09:33:44;;;;;;;6.47;1.08;;;;;;;26.96;45.21;98957.56;4940803;28;20482;-59
2023/10/19 09:36:13;;;;;;;9.20;1.30;;;;;;;26.83;45.89;98969.13;4959528;28;20050;-59
2023/10/19 09:38:41;;;;;;;5.68;1.33;;;;;;;26.73;45.47;98969.16;4960054;28;20051;-59
2023/10/19 09:41:08;;;;;;;5.43;0.80;;;;;;;26.62;45.65;98959.28;4959757;28;20023;-59
2023/10/19 09:43:38;;;;;;;5.32;0.85;;;;;;;26.58;45.40;98955.44;4976940;28;20046;-59
2023/10/19 09:46:08;;;;;;;5.45;1.15;;;;;;;26.55;45.63;98945.03;4943773;28;20379;-59
2023/10/19 09:48:41;;;;;;;8.43;1.20;;;;;;;26.48;46.06;98950.81;4959417;28;20042;-59
2023/10/19 09:51:08;;;;;;;4.70;0.80;;;;;;;26.48;46.17;98950.00;4959688;28;20109;-59
2023/10/19 09:53:34;;;;;;;6.90;1.50;;;;;;;26.47;45.58;98940.09;4959753;28;20042;-59
2023/10/19 09:56:00;;;;;;;3.13;1.52;;;;;;;26.47;46.22;98938.19;4959014;28;20034;-59
2023/10/19 09:58:29;;;;;;;8.00;1.48;;;;;;;26.60;46.13;98947.78;4959430;28;20440;-59
2023/10/19 10:00:57;;;;;;;10.45;1.33;;;;;;;27.10;45.22;98941.28;4959634;28;20039;-59
2023/10/19 10:03:45;;;;;;;4.78;0.73;;;;;;;27.55;44.88;98931.97;4976978;28;20034;-59
2023/10/19 10:06:15;;;;;;;3.78;0.77;;;;;;;27.73;44.41;98928.50;4959381;28;20031;-59
2023/10/19 10:08:42;;;;;;;5.55;0.88;;;;;;;28.05;44.16;98931.59;4959195;28;20031;-59
2023/10/19 10:11:17;;;;;;;6.53;1.40;;;;;;;28.14;43.36;98924.31;4959046;28;20030;-58
2023/10/19 10:13:45;;;;;;;7.25;0.80;;;;;;;28.81;43.22;98925.28;4958409;28;20430;-59
2023/10/19 10:16:13;;;;;;;7.95;1.40;;;;;;;29.51;42.58;98914.41;4976091;28;20035;-59
2023/10/19 10:18:41;;;;;;;3.85;1.00;;;;;;;29.05;43.18;98917.78;4959578;28;20489;-58
2023/10/19 10:21:16;;;;;;;6.60;1.08;;;;;;;28.83;43.06;98925.81;4965766;28;20045;-58
2023/10/19 10:23:53;;;;;;;3.22;1.00;;;;;;;28.55;43.46;98929.41;4976693;28;20047;-59
2023/10/19 10:26:25;;;;;;;5.43;1.08;;;;;;;28.33;44.36;98938.19;4959349;28;20081;-59
2023/10/19 10:29:11;;;;;;;4.57;1.00;;;;;;;28.10;44.57;98945.28;4959842;28;20086;-58
2023/10/19 10:31:42;;;;;;;9.32;1.20;;;;;;;27.86;44.65;98955.41;4959536;28;20070;-58
2023/10/19 10:34:09;;;;;;;3.55;1.02;;;;;;;27.64;44.96;98952.22;4958837;28;20114;-59
2023/10/19 10:37:08;;;;;;;7.07;1.33;;;;;;;27.47;44.03;98949.06;4975791;28;20042;-59
2023/10/19 10:39:37;;;;;;;5.75;1.10;;;;;;;27.26;44.79;98942.00;4975864;28;20081;-58
2023/10/19 10:42:05;;;;;;;9.85;1.75;;;;;;;27.12;45.00;98939.88;4975890;28;20543;-59
2023/10/19 10:44:38;;;;;;;5.13;1.10;;;;;;;27.03;44.50;98933.31;4975514;28;20053;-58
2023/10/19 10:47:04;;;;;;;3.38;1.73;;;;;;;27.01;45.06;98930.06;4976014;28;20035;-58
2023/10/19 10:49:29;;;;;;;7.53;1.58;;;;;;;27.07;45.42;98931.66;4958573;28;20038;-58
2023/10/19 10:51:56;;;;;;;5.28;0.77;;;;;;;27.41;44.67;98917.19;4958205;28;20049;-59
2023/10/19 10:54:21;;;;;;;11.35;1.17;;;;;;;27.50;43.98;98901.75;4958448;28;20101;-58
2023/10/19 10:56:49;;;;;;;7.20;0.82;;;;;;;27.69;44.63;98899.94;4958097;28;20031;-58
2023/10/19 10:59:15;;;;;;;4.63;1.10;;;;;;;27.85;44.86;98908.88;4942175;28;20054;-59
2023/10/19 11:01:41;;;;;;;7.18;1.77;;;;;;;28.05;43.69;98912.31;4958252;28;20061;-59
2023/10/19 11:04:10;;;;;;;9.60;1.65;;;;;;;28.75;43.73;98907.16;4975243;28;20438;-59
2023/10/19 11:06:47;;;;;;;6.93;1.40;;;;;;;28.78;42.99;98890.03;4974389;28;20035;-59
2023/10/19 11:09:14;;;;;;;3.30;0.93;;;;;;;29.17;42.97;98892.53;4975218;28;20035;-59
2023/10/19 11:11:40;;;;;;;4.22;0.65;;;;;;;29.19;42.58;98893.88;4957695;28;20407;-59
2023/10/19 11:14:11;;;;;;;2.15;0.60;;;;;;;29.18;42.71;98899.66;4957935;28;20059;-59
2023/10/19 11:16:39;;;;;;;4.30;1.52;;;;;;;29.04;43.21;98887.72;4958146;28;20111;-59
2023/10/19 11:19:05;;;;;;;7.72;1.20;;;;;;;28.85;43.09;98874.75;4957673;28;20054;-59
2023/10/19 11:21:30;;;;;;;9.18;1.00;;;;;;;28.68;43.34;98887.38;4957588;28;20039;-59
2023/10/19 11:23:56;;;;;;;5.00;0.70;;;;;;;28.48;42.95;98876.56;4974603;28;20075;-59
2023/10/19 11:26:26;;;;;;;3.10;0.93;;;;;;;28.35;43.33;98877.28;4957612;28;20364;-59
2023/10/19 11:29:04;;;;;;;10.27;1.05;;;;;;;28.22;43.69;98882.41;4975078;28;20098;-59
2023/10/19 11:31:37;;;;;;;5.72;0.98;;;;;;;28.08;43.83;98870.44;4925825;28;20046;-58
2023/10/19 11:34:04;;;;;;;9.43;1.23;;;;;;;27.99;43.79;98869.38;4957353;28;20045;-59
2023/10/19 11:36:29;;;;;;;4.07;0.60;;;;;;;27.92;43.60;98876.34;4957111;28;20390;-59
2023/10/19 11:38:55;;;;;;;4.40;1.10;;;;;;;27.83;43.15;98884.41;4974929;28;20025;-58
2023/10/19 11:41:20;;;;;;;4.97;1.00;;;;;;;27.75;44.10;98882.25;4941612;28;20027;-59
2023/10/19 11:43:46;;;;;;;8.45;1.45;;;;;;;27.67;44.07;98880.13;4941307;28;20030;-59
2023/10/19 11:46:14;;;;;;;7.00;1.08;;;;;;;27.66;43.97;98870.25;4974779;28;20427;-59
2023/10/19 11:48:42;;;;;;;4.47;0.80;;;;;;;27.64;44.22;98875.19;4957498;28;20027;-59
2023/10/19 11:51:09;;;;;;;4.88;0.90;;;;;;;27.57;44.65;98871.97;4974373;28;20030;-59
2023/10/19 11:53:36;;;;;;;5.72;1.48;;;;;;;27.51;44.75;98878.59;4974677;28;20041;-58
2023/10/19 11:56:09;;;;;;;2.33;0.55;;;;;;;27.44;44.26;98869.88;4957540;28;20031;-59
2023/10/19 11:58:35;;;;;;;1.73;0.88;;;;;;;27.40;44.66;98863.25;4957078;28;20054;-58
2023/10/19 12:01:05;;;;;;;5.15;0.55;;;;;;;27.37;43.94;98858.31;4974258;28;20042;-59
2023/10/19 12:03:30;;;;;;;3.90;1.00;;;;;;;27.33;44.02;98869.06;4957791;28;20039;-58